createdAt,value
2023-01-15T00:01:45.364Z,101024.06
2023-01-15T00:04:12.198Z,101070.94
2023-01-15T00:06:40.736Z,101069.28
2023-01-15T00:09:08.157Z,101054.94
2023-01-15T00:11:34.980Z,101073.75
2023-01-15T00:14:01.838Z,101052.94
2023-01-15T00:16:28.704Z,101062.75
2023-01-15T00:18:59.948Z,101040.88
2023-01-15T00:21:27.568Z,101038.63
2023-01-15T00:24:13.090Z,100965.88
2023-01-15T00:26:58.734Z,101030.97
2023-01-15T00:29:25.689Z,101023.44
2023-01-15T00:31:57.741Z,100862.22
2023-01-15T00:34:24.994Z,101004.72
2023-01-15T00:36:52.149Z,101015.81
2023-01-15T00:39:19.146Z,101014.16
2023-01-15T00:41:46.013Z,101002.38
2023-01-15T00:44:12.926Z,101025.16
2023-01-15T00:46:39.796Z,100908.28
2023-01-15T00:49:06.622Z,101001.31
2023-01-15T00:51:33.498Z,100987.09
2023-01-15T00:54:00.309Z,101025.56
2023-01-15T00:56:27.152Z,101001.78
2023-01-15T00:58:54.118Z,101003.50
2023-01-15T01:01:21.212Z,101039.69
2023-01-15T01:03:50.264Z,101016.84
2023-01-15T01:06:17.373Z,101049.25
2023-01-15T01:08:46.211Z,101047.88
2023-01-15T01:11:14.459Z,101036.69
2023-01-15T01:13:41.580Z,101052.94
2023-01-15T01:16:38.717Z,101034.19
2023-01-15T01:19:09.067Z,101064.44
2023-01-15T01:21:36.784Z,101054.34
2023-01-15T01:24:03.712Z,100983.91
2023-01-15T01:26:30.694Z,101044.84
2023-01-15T01:28:57.555Z,101041.22
2023-01-15T01:31:24.556Z,101049.00
2023-01-15T01:33:52.413Z,101049.00
2023-01-15T01:36:20.101Z,101024.69
2023-01-15T01:38:52.520Z,101064.38
2023-01-15T01:41:19.723Z,101020.22
2023-01-15T01:43:58.607Z,101062.16
2023-01-15T01:46:26.164Z,101056.53
2023-01-15T01:48:55.485Z,100992.28
2023-01-15T01:51:23.558Z,100966.28
2023-01-15T01:53:50.348Z,100983.97
2023-01-15T01:56:17.905Z,101094.81
2023-01-15T01:58:48.793Z,101048.34
2023-01-15T02:01:15.936Z,101036.66
2023-01-15T02:03:42.728Z,101072.19
2023-01-15T02:06:10.361Z,101015.38
2023-01-15T02:08:39.615Z,101094.09
2023-01-15T02:11:07.777Z,101086.31
2023-01-15T02:13:42.144Z,101103.44
2023-01-15T02:16:14.171Z,101103.44
2023-01-15T02:18:52.219Z,101099.50
2023-01-15T02:21:24.551Z,101116.31
2023-01-15T02:24:03.313Z,101124.47
2023-01-15T02:26:57.367Z,101126.16
2023-01-15T02:29:52.128Z,101125.88
2023-01-15T02:32:49.909Z,101127.59
2023-01-15T02:35:29.570Z,101118.63
2023-01-15T02:38:11.478Z,101132.63
2023-01-15T02:40:38.547Z,101063.19
2023-01-15T02:43:05.915Z,101141.63
2023-01-15T02:45:33.920Z,101119.19
2023-01-15T02:48:14.100Z,101136.31
2023-01-15T02:50:43.025Z,101129.31
2023-01-15T02:53:11.323Z,101130.69
2023-01-15T02:55:41.504Z,101132.38
2023-01-15T02:58:10.897Z,101155.63
2023-01-15T03:00:39.716Z,101155.91
2023-01-15T03:03:45.765Z,101060.38
2023-01-15T03:06:39.399Z,101152.84
2023-01-15T03:09:06.876Z,101086.16
2023-01-15T03:11:38.098Z,101152.56
2023-01-15T03:14:09.950Z,101157.31
2023-01-15T03:16:42.895Z,101099.31
2023-01-15T03:19:39.658Z,101153.41
2023-01-15T03:22:19.973Z,101161.22
2023-01-15T03:24:48.112Z,101151.16
2023-01-15T03:27:15.654Z,101066.25
2023-01-15T03:29:44.024Z,101093.97
2023-01-15T03:32:10.917Z,101170.47
2023-01-15T03:34:51.104Z,101199.06
2023-01-15T03:37:18.789Z,101177.19
2023-01-15T03:39:45.634Z,101167.13
2023-01-15T03:42:35.883Z,101181.94
2023-01-15T03:45:16.042Z,101165.72
2023-01-15T03:48:17.646Z,101177.47
2023-01-15T03:50:57.629Z,101176.34
2023-01-15T03:53:28.467Z,101149.41
2023-01-15T03:56:17.522Z,101195.66
2023-01-15T03:58:54.415Z,101182.22
2023-01-15T04:01:25.899Z,101187.78
2023-01-15T04:03:52.733Z,101188.34
2023-01-15T04:06:19.564Z,101184.16
2023-01-15T04:08:46.312Z,101181.63
2023-01-15T04:11:13.076Z,101188.88
2023-01-15T04:13:39.937Z,101204.59
2023-01-15T04:16:07.126Z,101171.22
2023-01-15T04:18:33.926Z,101200.94
2023-01-15T04:21:00.810Z,101203.72
2023-01-15T04:23:27.601Z,101208.75
2023-01-15T04:25:54.389Z,101219.41
2023-01-15T04:28:21.283Z,101163.81
2023-01-15T04:30:48.382Z,101184.06
2023-01-15T04:33:15.278Z,101231.72
2023-01-15T04:35:42.167Z,101233.66
2023-01-15T04:38:08.956Z,101237.31
2023-01-15T04:40:54.759Z,101236.44
2023-01-15T04:43:40.179Z,101231.69
2023-01-15T04:46:07.104Z,101075.72
2023-01-15T04:48:33.939Z,101227.22
2023-01-15T04:51:04.618Z,101207.63
2023-01-15T04:53:31.434Z,101223.88
2023-01-15T04:56:02.373Z,101231.19
2023-01-15T04:58:29.355Z,101238.72
2023-01-15T05:00:56.396Z,101237.88
2023-01-15T05:03:23.231Z,101196.34
2023-01-15T05:05:50.837Z,101204.25
2023-01-15T05:08:17.769Z,101130.16
2023-01-15T05:10:44.602Z,101151.50
2023-01-15T05:13:11.396Z,101227.81
2023-01-15T05:15:41.036Z,101228.66
2023-01-15T05:18:07.950Z,101234.53
2023-01-15T05:20:37.673Z,101178.41
2023-01-15T05:23:04.608Z,101235.66
2023-01-15T05:25:31.367Z,101186.88
2023-01-15T05:27:58.158Z,101232.03
2023-01-15T05:30:25.157Z,101228.06
2023-01-15T05:32:52.110Z,101244.06
2023-01-15T05:35:18.858Z,101205.31
2023-01-15T05:37:45.759Z,101253.28
2023-01-15T05:40:12.738Z,101112.69
2023-01-15T05:42:39.515Z,101268.16
2023-01-15T05:45:06.910Z,101197.94
2023-01-15T05:47:35.900Z,101279.31
2023-01-15T05:50:02.807Z,101258.00
2023-01-15T05:52:29.718Z,101291.09
2023-01-15T05:54:56.519Z,101293.06
2023-01-15T05:57:23.279Z,101301.47
2023-01-15T05:59:50.685Z,101311.81
2023-01-15T06:02:17.449Z,101315.72
2023-01-15T06:04:44.199Z,101216.63
2023-01-15T06:07:11.209Z,101317.34
2023-01-15T06:09:38.027Z,101333.06
2023-01-15T06:12:05.159Z,101324.66
2023-01-15T06:14:32.116Z,101337.00
2023-01-15T06:16:58.913Z,101339.22
2023-01-15T06:19:25.724Z,101331.34
2023-01-15T06:21:52.683Z,101308.28
2023-01-15T06:24:20.229Z,101291.94
2023-01-15T06:26:47.029Z,101284.31
2023-01-15T06:29:17.730Z,101330.97
2023-01-15T06:31:44.607Z,101350.34
2023-01-15T06:34:11.405Z,101345.03
2023-01-15T06:36:38.296Z,101378.88
2023-01-15T06:39:05.504Z,101361.25
2023-01-15T06:41:51.117Z,101362.91
2023-01-15T06:44:36.773Z,101336.47
2023-01-15T06:47:24.292Z,101369.63
2023-01-15T06:49:56.019Z,101287.81
2023-01-15T06:52:23.995Z,101368.47
2023-01-15T06:54:50.986Z,101379.94
2023-01-15T06:57:19.109Z,101348.97
2023-01-15T06:59:46.454Z,101379.56
2023-01-15T07:02:13.309Z,101404.53
2023-01-15T07:04:40.071Z,101403.94
2023-01-15T07:07:06.972Z,101326.31
2023-01-15T07:09:33.809Z,101289.19
2023-01-15T07:12:00.586Z,101401.50
2023-01-15T07:14:31.421Z,101421.09
2023-01-15T07:16:59.426Z,101441.34
2023-01-15T07:19:26.618Z,101284.34
2023-01-15T07:21:53.555Z,101444.94
2023-01-15T07:24:20.339Z,101372.31
2023-01-15T07:26:47.227Z,101363.56
2023-01-15T07:29:14.366Z,101381.44
2023-01-15T07:31:41.563Z,101454.88
2023-01-15T07:34:08.367Z,101459.63
2023-01-15T07:36:35.220Z,101458.47
2023-01-15T07:39:04.621Z,101459.84
2023-01-15T07:41:49.963Z,101462.91
2023-01-15T07:44:35.365Z,101468.44
2023-01-15T07:47:21.156Z,101439.22
2023-01-15T07:49:51.229Z,101469.25
2023-01-15T07:52:19.700Z,101472.28
2023-01-15T07:54:47.018Z,101463.25
2023-01-15T07:57:15.052Z,101462.41
2023-01-15T07:59:41.863Z,101469.44
2023-01-15T08:02:08.892Z,101465.19
2023-01-15T08:04:35.834Z,101474.75
2023-01-15T08:07:03.222Z,101445.28
2023-01-15T08:09:30.406Z,101452.75
2023-01-15T08:12:17.741Z,101470.81
2023-01-15T08:15:03.299Z,101484.25
2023-01-15T08:17:30.318Z,101489.03
2023-01-15T08:19:57.100Z,101474.41
2023-01-15T08:22:24.024Z,101494.13
2023-01-15T08:24:50.858Z,101462.38
2023-01-15T08:27:17.695Z,101495.59
2023-01-15T08:29:44.566Z,101488.66
2023-01-15T08:32:11.319Z,101475.88
2023-01-15T08:34:38.223Z,101497.63
2023-01-15T08:37:05.126Z,101503.31
2023-01-15T08:39:31.972Z,101512.41
2023-01-15T08:41:58.774Z,101495.38
2023-01-15T08:44:25.793Z,101498.31
2023-01-15T08:46:52.741Z,101517.53
2023-01-15T08:49:20.236Z,101534.19
2023-01-15T08:51:52.063Z,101537.06
2023-01-15T08:54:20.018Z,101539.66
2023-01-15T08:56:46.959Z,101554.34
2023-01-15T08:59:14.196Z,101531.03
2023-01-15T09:01:41.203Z,101544.06
2023-01-15T09:04:08.125Z,101480.81
2023-01-15T09:06:35.055Z,101558.25
2023-01-15T09:09:01.930Z,101577.69
2023-01-15T09:11:28.928Z,101576.31
2023-01-15T09:13:55.846Z,101586.16
2023-01-15T09:16:22.797Z,101585.56
2023-01-15T09:18:49.586Z,101598.97
2023-01-15T09:21:16.583Z,101527.00
2023-01-15T09:23:43.351Z,101625.19
2023-01-15T09:26:25.534Z,101617.06
2023-01-15T09:28:52.803Z,101619.84
2023-01-15T09:31:19.566Z,101633.88
2023-01-15T09:33:46.451Z,101637.41
2023-01-15T09:36:30.558Z,101635.31
2023-01-15T09:38:58.137Z,101630.84
2023-01-15T09:41:44.928Z,101630.06
2023-01-15T09:44:23.895Z,101642.91
2023-01-15T09:46:58.647Z,101639.13
2023-01-15T09:49:38.084Z,101652.66
2023-01-15T09:52:23.144Z,101647.41
2023-01-15T09:55:08.186Z,101661.91
2023-01-15T09:57:35.131Z,101566.00
2023-01-15T10:00:02.603Z,101572.06
2023-01-15T10:02:43.282Z,101650.84
2023-01-15T10:05:37.899Z,101652.41
2023-01-15T10:08:13.232Z,101657.19
2023-01-15T10:10:45.062Z,101668.44
2023-01-15T10:13:33.140Z,101672.09
2023-01-15T10:16:00.120Z,101679.28
2023-01-15T10:18:27.370Z,101642.84
2023-01-15T10:21:12.772Z,101690.06
2023-01-15T10:23:51.254Z,101678.59
2023-01-15T10:26:30.676Z,101686.56
2023-01-15T10:29:10.790Z,101635.81
2023-01-15T10:31:53.707Z,101684.88
2023-01-15T10:34:33.769Z,101704.31
2023-01-15T10:37:09.678Z,101703.03
2023-01-15T10:40:01.104Z,101699.09
2023-01-15T10:42:33.032Z,101703.69
2023-01-15T10:45:18.023Z,101703.94
2023-01-15T10:47:45.711Z,101705.59
2023-01-15T10:50:24.390Z,101697.22
2023-01-15T10:53:09.398Z,101695.66
2023-01-15T10:55:47.694Z,101668.66
2023-01-15T10:58:23.074Z,101677.94
2023-01-15T11:00:52.639Z,101677.19
2023-01-15T11:03:38.518Z,101673.19
2023-01-15T11:06:08.367Z,101694.38
2023-01-15T11:11:59.171Z,101669.81
2023-01-15T11:15:00.812Z,101688.34
2023-01-15T11:17:57.907Z,101691.88
2023-01-15T11:20:37.323Z,101705.09
2023-01-15T11:23:08.843Z,101688.63
2023-01-15T11:25:35.749Z,101717.56
2023-01-15T11:28:06.495Z,101729.97
2023-01-15T11:30:37.657Z,101710.94
2023-01-15T11:33:06.575Z,101706.53
2023-01-15T11:35:33.944Z,101706.53
2023-01-15T11:38:14.144Z,101691.84
2023-01-15T11:40:53.419Z,101695.41
2023-01-15T11:43:40.637Z,101702.47
2023-01-15T11:46:46.808Z,101699.72
2023-01-15T11:49:38.057Z,101699.88
2023-01-15T11:52:17.921Z,101629.34
2023-01-15T11:54:47.490Z,101685.66
2023-01-15T11:57:26.863Z,101696.97
2023-01-15T11:59:53.776Z,101618.72
2023-01-15T12:02:28.391Z,101676.13
2023-01-15T12:04:56.770Z,101655.41
2023-01-15T12:07:24.615Z,101608.28
2023-01-15T12:10:15.661Z,101683.69
2023-01-15T12:12:54.849Z,101675.81
2023-01-15T12:15:36.900Z,101672.78
2023-01-15T12:18:11.731Z,101661.94
2023-01-15T12:20:50.642Z,101652.16
2023-01-15T12:23:32.473Z,101635.66
2023-01-15T12:26:17.991Z,101626.16
2023-01-15T12:29:00.869Z,101559.81
2023-01-15T12:31:43.730Z,101635.38
2023-01-15T12:34:23.227Z,101628.22
2023-01-15T12:36:59.629Z,101507.63
2023-01-15T12:39:36.982Z,101544.38
2023-01-15T12:42:24.774Z,101607.75
2023-01-15T12:45:04.372Z,101608.09
2023-01-15T12:47:49.463Z,101606.97
2023-01-15T12:50:38.137Z,101575.47
2023-01-15T12:53:12.794Z,101585.81
2023-01-15T12:55:43.181Z,101598.19
2023-01-15T12:58:40.328Z,101584.91
2023-01-15T13:01:18.903Z,101588.44
2023-01-15T13:03:54.225Z,101580.63
2023-01-15T13:06:21.210Z,101555.91
2023-01-15T13:09:02.204Z,101548.72
2023-01-15T13:11:29.187Z,101577.22
2023-01-15T13:13:58.748Z,101577.88
2023-01-15T13:16:47.244Z,101566.09
2023-01-15T13:19:29.089Z,101562.56
2023-01-15T13:21:57.789Z,101551.94
2023-01-15T13:24:59.859Z,101554.94
2023-01-15T13:28:06.612Z,101548.28
2023-01-15T13:30:52.521Z,101551.72
2023-01-15T13:33:30.356Z,101531.81
2023-01-15T13:36:03.978Z,101481.63
2023-01-15T13:38:31.168Z,101560.53
2023-01-15T13:40:57.966Z,101561.28
2023-01-15T13:43:33.165Z,101564.31
2023-01-15T13:45:59.965Z,101570.59
2023-01-15T13:48:33.283Z,101559.88
2023-01-15T13:51:00.983Z,101555.97
2023-01-15T13:53:46.641Z,101552.44
2023-01-15T13:56:15.861Z,101542.31
2023-01-15T13:58:56.643Z,101534.25
2023-01-15T14:01:24.502Z,101493.59
2023-01-15T14:04:05.236Z,101537.38
2023-01-15T14:06:47.768Z,101541.72
2023-01-15T14:09:27.201Z,101515.13
2023-01-15T14:12:22.051Z,101549.72
2023-01-15T14:15:13.303Z,101542.38
2023-01-15T14:17:58.606Z,101554.84
2023-01-15T14:20:44.713Z,101542.00
2023-01-15T14:23:47.876Z,101545.34
2023-01-15T14:26:44.570Z,101501.53
2023-01-15T14:29:36.194Z,101542.56
2023-01-15T14:32:24.493Z,101539.56
2023-01-15T14:34:55.763Z,101528.97
2023-01-15T14:37:30.230Z,101528.72
2023-01-15T14:40:01.149Z,101528.50
2023-01-15T14:42:53.794Z,101513.34
2023-01-15T14:45:33.778Z,101537.94
2023-01-15T14:48:01.889Z,101464.81
2023-01-15T14:50:42.320Z,101520.28
2023-01-15T14:53:13.619Z,101527.63
2023-01-15T14:55:51.491Z,101451.88
2023-01-15T14:58:24.530Z,101510.78
2023-01-15T15:00:52.579Z,101374.31
2023-01-15T15:03:22.426Z,101521.66
2023-01-15T15:05:49.317Z,101532.09
2023-01-15T15:08:16.851Z,101510.44
2023-01-15T15:10:44.490Z,101540.31
2023-01-15T15:13:28.089Z,101537.25
2023-01-15T15:16:15.048Z,101528.00
2023-01-15T15:18:44.647Z,101498.22
2023-01-15T15:21:20.763Z,101521.81
2023-01-15T15:23:53.435Z,101516.78
2023-01-15T15:26:22.192Z,101526.66
2023-01-15T15:28:59.812Z,101523.56
2023-01-15T15:31:26.815Z,101543.28
2023-01-15T15:33:56.895Z,101523.00
2023-01-15T15:36:24.796Z,101456.22
2023-01-15T15:39:04.026Z,101504.47
2023-01-15T15:41:54.929Z,101501.09
2023-01-15T15:45:01.910Z,101424.25
2023-01-15T15:47:47.285Z,101507.34
2023-01-15T15:50:24.750Z,101528.13
2023-01-15T15:52:51.916Z,101535.75
2023-01-15T15:55:19.820Z,101491.16
2023-01-15T15:57:51.996Z,101481.03
2023-01-15T16:00:20.496Z,101420.97
2023-01-15T16:02:47.313Z,101523.72
2023-01-15T16:05:29.576Z,101526.25
2023-01-15T16:07:56.418Z,101453.53
2023-01-15T16:10:30.726Z,101524.00
2023-01-15T16:12:59.343Z,101532.75
2023-01-15T16:15:31.055Z,101522.09
2023-01-15T16:17:57.946Z,101533.03
2023-01-15T16:20:24.915Z,101529.38
2023-01-15T16:22:58.748Z,101521.50
2023-01-15T16:25:26.654Z,101527.13
2023-01-15T16:27:53.632Z,101445.13
2023-01-15T16:30:21.183Z,101447.09
2023-01-15T16:32:48.566Z,101543.44
2023-01-15T16:35:17.526Z,101489.50
2023-01-15T16:37:47.894Z,101553.53
2023-01-15T16:40:37.530Z,101527.44
2023-01-15T16:43:13.327Z,101554.38
2023-01-15T16:46:03.094Z,101541.19
2023-01-15T16:48:34.304Z,101547.94
2023-01-15T16:51:22.050Z,101551.84
2023-01-15T16:53:48.964Z,101547.66
2023-01-15T16:56:40.586Z,101554.94
2023-01-15T16:59:45.596Z,101559.72
2023-01-15T17:02:13.236Z,101577.38
2023-01-15T17:04:41.570Z,101564.19
2023-01-15T17:07:14.561Z,101555.22
2023-01-15T17:09:49.733Z,101448.41
2023-01-15T17:12:49.059Z,101551.50
2023-01-15T17:15:18.629Z,101561.63
2023-01-15T17:17:51.609Z,101543.66
2023-01-15T17:20:19.772Z,101530.44
2023-01-15T17:22:49.183Z,101368.88
2023-01-15T17:25:31.231Z,101522.84
2023-01-15T17:27:59.641Z,101520.34
2023-01-15T17:30:33.503Z,101515.28
2023-01-15T17:33:01.114Z,101494.75
2023-01-15T17:35:29.966Z,101508.78
2023-01-15T17:37:56.860Z,101514.69
2023-01-15T17:40:23.683Z,101516.91
2023-01-15T17:42:50.559Z,101521.97
2023-01-15T17:45:24.060Z,101511.31
2023-01-15T17:47:50.878Z,101513.53
2023-01-15T17:50:17.869Z,101513.53
2023-01-15T17:52:44.803Z,101503.16
2023-01-15T17:55:30.989Z,101483.44
2023-01-15T17:58:16.771Z,101458.44
2023-01-15T18:01:02.075Z,101493.00
2023-01-15T18:03:47.623Z,101506.25
2023-01-15T18:06:14.761Z,101512.44
2023-01-15T18:08:43.543Z,101500.63
2023-01-15T18:11:10.948Z,101486.03
2023-01-15T18:13:37.740Z,101510.50
2023-01-15T18:16:04.648Z,101513.00
2023-01-15T18:18:31.576Z,101486.56
2023-01-15T18:21:00.046Z,101507.66
2023-01-15T18:23:27.434Z,101512.44
2023-01-15T18:25:54.401Z,101505.97
2023-01-15T18:28:21.407Z,101497.25
2023-01-15T18:30:48.388Z,101502.03
2023-01-15T18:33:15.455Z,101511.81
2023-01-15T18:35:42.212Z,101472.75
2023-01-15T18:38:09.014Z,101512.34
2023-01-15T18:40:36.045Z,101455.56
2023-01-15T18:43:21.387Z,101496.84
2023-01-15T18:46:06.854Z,101499.41
2023-01-15T18:48:34.010Z,101515.94
2023-01-15T18:51:09.250Z,101497.69
2023-01-15T18:53:36.062Z,101496.00
2023-01-15T18:56:06.125Z,101494.34
2023-01-15T18:58:33.053Z,101487.31
2023-01-15T19:01:06.996Z,101503.88
2023-01-15T19:03:33.969Z,101503.28
2023-01-15T19:06:13.097Z,101497.94
2023-01-15T19:08:40.046Z,101498.50
2023-01-15T19:11:15.647Z,101492.31
2023-01-15T19:13:42.706Z,101500.44
2023-01-15T19:16:27.831Z,101504.97
2023-01-15T19:18:54.824Z,101474.63
2023-01-15T19:21:21.718Z,101483.66
2023-01-15T19:23:48.538Z,101367.91
2023-01-15T19:26:15.450Z,101436.47
2023-01-15T19:28:42.315Z,101479.22
2023-01-15T19:31:28.308Z,101473.03
2023-01-15T19:34:13.134Z,101485.41
2023-01-15T19:36:45.252Z,101481.78
2023-01-15T19:39:12.051Z,101484.84
2023-01-15T19:41:57.389Z,101483.72
2023-01-15T19:44:42.774Z,101494.09
2023-01-15T19:47:35.203Z,101499.16
2023-01-15T19:50:20.125Z,101494.09
2023-01-15T19:52:51.764Z,101485.94
2023-01-15T19:55:18.893Z,101467.38
2023-01-15T19:57:47.350Z,101467.44
2023-01-15T20:00:16.651Z,101449.19
2023-01-15T20:02:44.419Z,101455.66
2023-01-15T20:05:11.441Z,101459.88
2023-01-15T20:07:38.498Z,101454.81
2023-01-15T20:10:16.138Z,101451.47
2023-01-15T20:13:01.803Z,101454.84
2023-01-15T20:15:28.773Z,101445.03
2023-01-15T20:17:56.411Z,101440.84
2023-01-15T20:20:23.738Z,101437.78
2023-01-15T20:22:50.522Z,101429.94
2023-01-15T20:25:17.417Z,101436.09
2023-01-15T20:27:44.504Z,101454.63
2023-01-15T20:30:13.822Z,101464.72
2023-01-15T20:32:42.215Z,101420.63
2023-01-15T20:35:11.504Z,101438.38
2023-01-15T20:37:38.409Z,101419.00
2023-01-15T20:40:05.830Z,101397.31
2023-01-15T20:42:51.238Z,101413.09
2023-01-15T20:45:18.019Z,101341.47
2023-01-15T20:48:03.396Z,101437.53
2023-01-15T20:50:33.640Z,101421.81
2023-01-15T20:53:00.442Z,101352.41
2023-01-15T20:55:54.887Z,101435.00
2023-01-15T20:58:24.079Z,101440.31
2023-01-15T21:00:51.074Z,101417.03
2023-01-15T21:03:18.209Z,101363.97
2023-01-15T21:05:45.214Z,101418.16
2023-01-15T21:08:12.552Z,101405.25
2023-01-15T21:10:40.159Z,101408.94
2023-01-15T21:13:06.987Z,101388.72
2023-01-15T21:15:33.971Z,101295.19
2023-01-15T21:20:33.511Z,101410.34
2023-01-15T21:23:00.575Z,101296.63
2023-01-15T21:25:27.441Z,101224.25
2023-01-15T21:27:54.229Z,101394.59
2023-01-15T21:30:21.281Z,101420.72
2023-01-15T21:32:48.865Z,101409.78
2023-01-15T21:35:15.776Z,101410.03
2023-01-15T21:37:42.679Z,101374.06
2023-01-15T21:40:10.314Z,101357.47
2023-01-15T21:42:55.612Z,101394.50
2023-01-15T21:45:22.534Z,101360.28
2023-01-15T21:47:49.464Z,101362.81
2023-01-15T21:50:17.927Z,101361.72
2023-01-15T21:52:44.827Z,101325.44
2023-01-15T21:55:13.267Z,101388.91
2023-01-15T21:57:40.305Z,101388.69
2023-01-15T22:00:08.112Z,101364.81
2023-01-15T22:02:36.066Z,101364.50
2023-01-15T22:05:03.835Z,101341.78
2023-01-15T22:07:30.566Z,101402.16
2023-01-15T22:09:57.441Z,101377.69
2023-01-15T22:12:24.319Z,101408.81
2023-01-15T22:14:51.155Z,101377.56
2023-01-15T22:17:18.119Z,101303.41
2023-01-15T22:19:44.967Z,101343.53
2023-01-15T22:22:11.831Z,101341.81
2023-01-15T22:24:40.024Z,101300.25
2023-01-15T22:27:07.761Z,101346.00
2023-01-15T22:29:38.423Z,101329.72
2023-01-15T22:32:06.213Z,101349.13
2023-01-15T22:34:33.153Z,101354.44
2023-01-15T22:37:00.091Z,101359.50
2023-01-15T22:39:27.164Z,101340.44
2023-01-15T22:42:12.560Z,101301.69
2023-01-15T22:44:39.848Z,101319.66
2023-01-15T22:47:06.791Z,101301.91
2023-01-15T22:49:33.587Z,101313.16
2023-01-15T22:52:00.540Z,101310.06
2023-01-15T22:54:27.373Z,101308.09
2023-01-15T22:56:54.298Z,101356.94
2023-01-15T22:59:21.179Z,101328.06
2023-01-15T23:01:48.116Z,101320.19
2023-01-15T23:04:25.226Z,101226.69
2023-01-15T23:06:52.685Z,101333.75
2023-01-15T23:09:20.340Z,101325.84
2023-01-15T23:11:47.217Z,101334.84
2023-01-15T23:14:16.032Z,101271.44
2023-01-15T23:16:43.389Z,101280.44
2023-01-15T23:19:10.432Z,101296.75
2023-01-15T23:21:37.367Z,101299.63
2023-01-15T23:24:04.372Z,101321.25
2023-01-15T23:26:32.078Z,101282.78
2023-01-15T23:28:59.033Z,101264.03
2023-01-15T23:31:26.090Z,101305.28
2023-01-15T23:33:52.947Z,101220.56
2023-01-15T23:36:19.848Z,101285.13
2023-01-15T23:38:49.345Z,101283.44
2023-01-15T23:41:17.773Z,101242.50
2023-01-15T23:44:03.068Z,101241.38
2023-01-15T23:46:33.148Z,101194.81
2023-01-15T23:49:10.283Z,101278.41
2023-01-15T23:51:37.504Z,101272.81
2023-01-15T23:54:04.702Z,101249.81
2023-01-15T23:56:31.986Z,101274.50
2023-01-15T23:58:58.966Z,101270.56
